Time;durP1;ratioP1;P1;durP2;ratioP2;P2;SDS_P1;SDS_P2;PMS_P1;PMS_P2;Temp;Humidity;BMP_temperature;BMP_pressure;BME280_temperature;BME280_humidity;BME280_pressure;Samples;Min_cycle;Max_cycle;Signal;HPM_P1;HPM_P2
2022/07/17 00:01:43;;;;;;;4.30;3.47;;;;;;;;;;751838;185;816962;-57
2022/07/17 00:04:09;;;;;;;5.80;2.87;;;;;;;;;;751402;183;916320;-60
2022/07/17 00:06:35;;;;;;;4.07;3.00;;;;;;;;;;761163;185;918616;-58
2022/07/17 00:09:01;;;;;;;4.43;3.10;;;;;;;;;;748572;182;920045;-57
2022/07/17 00:11:26;;;;;;;4.17;2.87;;;;;;;;;;747370;185;1295470;-57
2022/07/17 00:13:53;;;;;;;4.13;3.27;;;;;;;;;;757082;185;919681;-59
2022/07/17 00:16:18;;;;;;;3.33;2.60;;;;;;;;;;756285;183;893321;-59
2022/07/17 00:18:44;;;;;;;5.20;3.13;;;;;;;;;;744244;185;918899;-61
2022/07/17 00:21:10;;;;;;;4.07;3.00;;;;;;;;;;756072;185;819408;-60
2022/07/17 00:23:36;;;;;;;5.20;2.60;;;;;;;;;;746483;185;919350;-57
2022/07/17 00:26:02;;;;;;;4.70;3.12;;;;;;;;;;741598;185;907159;-61
2022/07/17 00:28:27;;;;;;;5.50;2.93;;;;;;;;;;748063;185;919540;-58
2022/07/17 00:30:53;;;;;;;5.60;3.00;;;;;;;;;;756060;183;918823;-57
2022/07/17 00:33:19;;;;;;;3.80;2.73;;;;;;;;;;749876;185;919049;-60
2022/07/17 00:35:45;;;;;;;8.23;2.60;;;;;;;;;;748671;185;922132;-57
2022/07/17 00:38:11;;;;;;;4.03;2.80;;;;;;;;;;754410;184;919272;-60
2022/07/17 00:40:37;;;;;;;3.47;2.80;;;;;;;;;;749131;185;920104;-57
2022/07/17 00:43:02;;;;;;;3.47;2.50;;;;;;;;;;752733;184;944356;-57
2022/07/17 00:45:28;;;;;;;3.97;3.00;;;;;;;;;;753254;186;813553;-57
2022/07/17 00:47:54;;;;;;;4.50;2.80;;;;;;;;;;751523;185;915980;-57
2022/07/17 00:50:20;;;;;;;3.67;2.97;;;;;;;;;;750206;185;819484;-60
2022/07/17 00:52:46;;;;;;;3.67;2.67;;;;;;;;;;752927;184;930751;-60
2022/07/17 00:55:12;;;;;;;4.30;2.77;;;;;;;;;;759290;181;920167;-57
2022/07/17 00:57:37;;;;;;;3.17;2.50;;;;;;;;;;753089;185;915359;-60
2022/07/17 01:00:09;;;;;;;3.83;2.77;;;;;;;;;;750156;185;918878;-58
2022/07/17 01:02:29;;;;;;;3.90;2.70;;;;;;;;;;755840;185;916991;-60
2022/07/17 01:04:55;;;;;;;3.70;2.50;;;;;;;;;;750989;183;919290;-60
2022/07/17 01:07:22;;;;;;;4.80;3.10;;;;;;;;;;750544;186;856479;-61
2022/07/17 01:09:47;;;;;;;4.40;2.90;;;;;;;;;;757900;185;875367;-59
2022/07/17 01:12:13;;;;;;;4.07;2.90;;;;;;;;;;750212;185;917714;-58
2022/07/17 01:14:39;;;;;;;6.77;2.87;;;;;;;;;;748587;185;920001;-60
2022/07/17 01:17:05;;;;;;;9.50;2.95;;;;;;;;;;753865;186;1001523;-58
2022/07/17 01:19:31;;;;;;;4.57;2.70;;;;;;;;;;752441;185;816867;-58
2022/07/17 01:21:57;;;;;;;5.03;2.80;;;;;;;;;;750466;185;919117;-57
2022/07/17 01:24:23;;;;;;;3.05;2.30;;;;;;;;;;750254;185;918437;-61
2022/07/17 01:26:49;;;;;;;3.83;2.97;;;;;;;;;;756012;186;815615;-60
2022/07/17 01:29:15;;;;;;;4.10;2.80;;;;;;;;;;750082;185;920491;-60
2022/07/17 01:31:41;;;;;;;5.03;2.70;;;;;;;;;;748406;187;817050;-58
2022/07/17 01:34:06;;;;;;;3.42;2.40;;;;;;;;;;755773;185;921405;-57
2022/07/17 01:36:32;;;;;;;5.13;2.47;;;;;;;;;;755245;185;916185;-58
2022/07/17 01:38:58;;;;;;;3.53;2.80;;;;;;;;;;752001;185;817159;-58
2022/07/17 01:41:24;;;;;;;3.37;2.33;;;;;;;;;;756493;185;919258;-61
2022/07/17 01:43:50;;;;;;;4.00;2.73;;;;;;;;;;751161;185;862299;-57
2022/07/17 01:46:16;;;;;;;5.63;2.60;;;;;;;;;;752659;185;919563;-60
2022/07/17 01:48:41;;;;;;;3.30;2.90;;;;;;;;;;748849;185;927061;-58
2022/07/17 01:51:07;;;;;;;3.70;2.67;;;;;;;;;;756562;185;919198;-58
2022/07/17 01:53:34;;;;;;;3.70;2.53;;;;;;;;;;751442;185;917365;-60
2022/07/17 01:56:00;;;;;;;3.92;2.55;;;;;;;;;;748611;185;1085910;-57
2022/07/17 01:58:25;;;;;;;6.65;2.80;;;;;;;;;;756911;185;921925;-60
2022/07/17 02:00:51;;;;;;;4.20;2.47;;;;;;;;;;754320;185;919238;-58
2022/07/17 02:03:17;;;;;;;3.60;2.80;;;;;;;;;;751645;185;1021646;-60
2022/07/17 02:05:43;;;;;;;5.47;2.87;;;;;;;;;;757131;185;816704;-58
2022/07/17 02:08:09;;;;;;;3.70;2.37;;;;;;;;;;753583;185;809155;-59
2022/07/17 02:10:35;;;;;;;3.03;2.27;;;;;;;;;;750209;185;816965;-61
2022/07/17 02:13:01;;;;;;;8.07;3.33;;;;;;;;;;750409;185;921059;-57
2022/07/17 02:15:26;;;;;;;4.53;2.67;;;;;;;;;;758109;181;919528;-60
2022/07/17 02:17:52;;;;;;;5.67;2.80;;;;;;;;;;752313;185;919532;-57
2022/07/17 02:20:18;;;;;;;3.87;2.63;;;;;;;;;;749643;185;919516;-58
2022/07/17 02:22:44;;;;;;;4.10;2.80;;;;;;;;;;750563;185;921260;-60
2022/07/17 02:25:10;;;;;;;7.03;3.20;;;;;;;;;;751944;185;917238;-58
2022/07/17 02:27:36;;;;;;;4.80;2.17;;;;;;;;;;751362;185;850343;-58
2022/07/17 02:30:02;;;;;;;4.55;2.50;;;;;;;;;;747831;185;921401;-61
2022/07/17 02:32:28;;;;;;;3.90;2.07;;;;;;;;;;749211;185;918831;-57
2022/07/17 02:34:54;;;;;;;4.70;2.33;;;;;;;;;;751197;186;919072;-57
2022/07/17 02:37:20;;;;;;;3.10;2.15;;;;;;;;;;753311;186;919436;-61
2022/07/17 02:42:21;;;;;;;4.93;3.07;;;;;;;;;;749342;186;919147;-57
2022/07/17 02:44:47;;;;;;;4.80;3.00;;;;;;;;;;750304;184;918896;-59
2022/07/17 02:47:13;;;;;;;4.03;2.80;;;;;;;;;;755261;186;939093;-61
2022/07/17 02:49:39;;;;;;;9.47;4.30;;;;;;;;;;750665;184;919634;-59
2022/07/17 02:52:05;;;;;;;4.15;3.17;;;;;;;;;;750897;185;913450;-57
2022/07/17 02:54:30;;;;;;;3.53;2.30;;;;;;;;;;751761;184;916202;-60
2022/07/17 02:56:56;;;;;;;6.03;2.57;;;;;;;;;;754606;184;920564;-58
2022/07/17 02:59:22;;;;;;;4.50;2.92;;;;;;;;;;750859;185;922736;-60
2022/07/17 03:01:48;;;;;;;4.07;2.62;;;;;;;;;;759139;183;917427;-60
2022/07/17 03:04:14;;;;;;;4.47;2.60;;;;;;;;;;755114;185;919032;-60
2022/07/17 03:06:40;;;;;;;11.03;2.77;;;;;;;;;;754799;184;816561;-60
2022/07/17 03:09:05;;;;;;;4.87;3.20;;;;;;;;;;753653;184;911489;-58
2022/07/17 03:11:31;;;;;;;5.35;3.70;;;;;;;;;;759232;185;912530;-63
2022/07/17 03:13:57;;;;;;;5.00;3.17;;;;;;;;;;747990;185;919078;-58
2022/07/17 03:16:23;;;;;;;3.93;2.87;;;;;;;;;;749807;182;917487;-58
2022/07/17 03:18:49;;;;;;;5.93;3.17;;;;;;;;;;753625;185;943110;-60
2022/07/17 03:21:15;;;;;;;8.33;3.30;;;;;;;;;;764876;182;919464;-57
2022/07/17 03:23:41;;;;;;;4.00;3.00;;;;;;;;;;743625;187;920258;-62
2022/07/17 03:26:06;;;;;;;4.17;3.57;;;;;;;;;;747979;185;922161;-58
2022/07/17 03:28:32;;;;;;;5.60;3.30;;;;;;;;;;753526;185;915326;-60
2022/07/17 03:30:58;;;;;;;4.00;3.00;;;;;;;;;;748230;185;922326;-60
2022/07/17 03:33:24;;;;;;;5.33;3.10;;;;;;;;;;749106;185;915036;-61
2022/07/17 03:35:50;;;;;;;4.90;3.70;;;;;;;;;;751315;185;922964;-62
2022/07/17 03:38:16;;;;;;;11.73;3.07;;;;;;;;;;749754;185;921537;-58
2022/07/17 03:40:41;;;;;;;8.23;3.00;;;;;;;;;;750016;185;916986;-60
2022/07/17 03:43:07;;;;;;;6.12;3.72;;;;;;;;;;754303;185;815697;-61
2022/07/17 03:45:33;;;;;;;5.30;3.50;;;;;;;;;;749134;184;918839;-58
2022/07/17 03:47:59;;;;;;;5.60;3.87;;;;;;;;;;751351;185;816309;-57
2022/07/17 03:50:25;;;;;;;5.93;3.80;;;;;;;;;;752336;184;815602;-58
2022/07/17 03:52:51;;;;;;;4.97;4.10;;;;;;;;;;753546;185;817399;-61
2022/07/17 03:55:17;;;;;;;5.70;4.05;;;;;;;;;;747863;186;919239;-58
2022/07/17 03:57:42;;;;;;;7.07;4.50;;;;;;;;;;748911;185;915473;-60
2022/07/17 04:00:09;;;;;;;5.00;4.13;;;;;;;;;;754683;185;919032;-61
2022/07/17 04:02:34;;;;;;;9.30;6.13;;;;;;;;;;749760;183;917697;-61
2022/07/17 04:05:00;;;;;;;6.70;5.00;;;;;;;;;;749624;185;816759;-59
2022/07/17 04:07:27;;;;;;;12.47;5.20;;;;;;;;;;752257;186;918162;-60
2022/07/17 04:09:53;;;;;;;7.73;5.03;;;;;;;;;;748814;184;963743;-57
2022/07/17 04:12:19;;;;;;;6.07;4.90;;;;;;;;;;749148;185;915433;-61
2022/07/17 04:14:44;;;;;;;8.13;5.23;;;;;;;;;;752673;184;819463;-60
2022/07/17 04:17:10;;;;;;;8.07;5.17;;;;;;;;;;756809;185;1008468;-60
2022/07/17 04:19:36;;;;;;;8.40;5.93;;;;;;;;;;751105;183;918622;-57
2022/07/17 04:22:02;;;;;;;8.60;5.63;;;;;;;;;;750047;185;919552;-58
2022/07/17 04:24:28;;;;;;;10.73;6.40;;;;;;;;;;754267;185;918869;-58
2022/07/17 04:26:54;;;;;;;11.30;6.77;;;;;;;;;;747583;183;923146;-57
2022/07/17 04:29:19;;;;;;;16.00;6.53;;;;;;;;;;748958;185;1018402;-60
2022/07/17 04:31:45;;;;;;;10.10;6.70;;;;;;;;;;756191;185;916023;-61
2022/07/17 04:34:11;;;;;;;12.00;7.37;;;;;;;;;;747343;185;918066;-58
2022/07/17 04:36:37;;;;;;;16.17;8.23;;;;;;;;;;749733;185;817339;-57
2022/07/17 04:39:03;;;;;;;12.53;6.83;;;;;;;;;;750042;185;919129;-58
2022/07/17 04:41:29;;;;;;;18.40;9.00;;;;;;;;;;757089;185;814889;-61
2022/07/17 04:43:54;;;;;;;13.27;7.77;;;;;;;;;;746726;185;918952;-57
2022/07/17 04:46:20;;;;;;;13.17;8.10;;;;;;;;;;752697;184;814187;-58
2022/07/17 04:48:46;;;;;;;13.67;8.60;;;;;;;;;;757027;185;923081;-58
2022/07/17 04:51:12;;;;;;;15.60;9.23;;;;;;;;;;748785;185;916274;-60
2022/07/17 04:53:38;;;;;;;20.27;9.20;;;;;;;;;;747447;185;830345;-62
2022/07/17 04:56:04;;;;;;;16.00;8.40;;;;;;;;;;755617;185;618401;-62
2022/07/17 04:58:30;;;;;;;15.90;8.83;;;;;;;;;;751741;185;625791;-58
2022/07/17 05:00:56;;;;;;;17.63;9.83;;;;;;;;;;749854;186;648768;-58
2022/07/17 05:03:22;;;;;;;15.77;8.02;;;;;;;;;;754922;186;637929;-58
2022/07/17 05:05:48;;;;;;;12.67;7.70;;;;;;;;;;752815;186;639801;-60
2022/07/17 05:08:14;;;;;;;12.03;8.00;;;;;;;;;;753288;183;637897;-62
2022/07/17 05:10:39;;;;;;;12.30;8.70;;;;;;;;;;751506;185;620410;-62
2022/07/17 05:13:05;;;;;;;9.77;7.43;;;;;;;;;;756705;184;636299;-58
2022/07/17 05:15:31;;;;;;;10.43;7.57;;;;;;;;;;754345;183;628163;-60
2022/07/17 05:17:57;;;;;;;12.67;7.53;;;;;;;;;;751520;184;627003;-62
2022/07/17 05:20:23;;;;;;;9.97;6.97;;;;;;;;;;756990;185;620321;-62
2022/07/17 05:22:49;;;;;;;14.50;6.97;;;;;;;;;;752463;186;628003;-59
2022/07/17 05:25:14;;;;;;;10.23;6.73;;;;;;;;;;752887;185;746817;-62
2022/07/17 05:27:40;;;;;;;11.03;7.40;;;;;;;;;;761610;185;619747;-59
2022/07/17 05:30:06;;;;;;;19.10;8.33;;;;;;;;;;759201;184;629648;-59
2022/07/17 05:32:32;;;;;;;8.70;6.33;;;;;;;;;;748734;184;644860;-61
2022/07/17 05:34:59;;;;;;;8.83;5.70;;;;;;;;;;753955;185;617089;-58
2022/07/17 05:37:24;;;;;;;7.20;5.47;;;;;;;;;;758151;184;628053;-59
2022/07/17 05:39:50;;;;;;;7.37;4.57;;;;;;;;;;754593;185;635322;-60
2022/07/17 05:42:16;;;;;;;10.67;4.77;;;;;;;;;;753262;184;617306;-60
2022/07/17 05:44:42;;;;;;;5.20;3.47;;;;;;;;;;762621;184;623348;-58
2022/07/17 05:47:08;;;;;;;4.13;3.30;;;;;;;;;;743852;185;625140;-58
2022/07/17 05:49:33;;;;;;;4.90;3.30;;;;;;;;;;751936;183;641546;-60
2022/07/17 05:51:59;;;;;;;4.23;2.87;;;;;;;;;;757355;185;629099;-61
2022/07/17 05:54:25;;;;;;;8.03;2.73;;;;;;;;;;755254;185;644687;-62
2022/07/17 05:56:51;;;;;;;5.20;3.33;;;;;;;;;;753250;184;623751;-61
2022/07/17 05:59:17;;;;;;;5.93;2.87;;;;;;;;;;754479;185;622128;-61
2022/07/17 06:01:43;;;;;;;5.67;2.60;;;;;;;;;;756844;185;610989;-60
2022/07/17 06:04:08;;;;;;;6.00;2.20;;;;;;;;;;755379;185;620776;-62
2022/07/17 06:06:34;;;;;;;6.70;2.30;;;;;;;;;;754499;184;628053;-61
2022/07/17 06:09:00;;;;;;;4.90;2.53;;;;;;;;;;760636;185;624967;-58
2022/07/17 06:11:26;;;;;;;5.10;2.60;;;;;;;;;;755395;185;634133;-59
2022/07/17 06:13:52;;;;;;;31.37;2.80;;;;;;;;;;752021;185;625778;-59
2022/07/17 06:16:18;;;;;;;6.30;2.20;;;;;;;;;;757940;185;620483;-59
2022/07/17 06:18:44;;;;;;;3.67;2.20;;;;;;;;;;757862;185;621923;-62
2022/07/17 06:21:10;;;;;;;2.57;1.70;;;;;;;;;;755905;184;633565;-59
2022/07/17 06:23:36;;;;;;;8.83;1.90;;;;;;;;;;757410;184;627253;-59
2022/07/17 06:26:02;;;;;;;3.30;2.10;;;;;;;;;;758283;183;629814;-60
2022/07/17 06:28:28;;;;;;;3.00;1.93;;;;;;;;;;751431;186;616006;-59
2022/07/17 06:30:53;;;;;;;3.33;1.40;;;;;;;;;;757647;184;623694;-63
2022/07/17 06:33:19;;;;;;;2.87;1.47;;;;;;;;;;756249;185;626344;-62
2022/07/17 06:35:45;;;;;;;7.20;2.10;;;;;;;;;;752977;183;615993;-62
2022/07/17 06:38:11;;;;;;;4.87;1.70;;;;;;;;;;756306;185;617841;-59
2022/07/17 06:40:37;;;;;;;3.30;1.83;;;;;;;;;;758963;182;624100;-60
2022/07/17 06:43:03;;;;;;;4.27;1.73;;;;;;;;;;754957;185;625924;-60
2022/07/17 06:45:28;;;;;;;3.93;1.73;;;;;;;;;;762687;183;628961;-59
2022/07/17 06:47:54;;;;;;;6.63;1.57;;;;;;;;;;755878;186;632551;-63
2022/07/17 06:50:20;;;;;;;4.27;1.50;;;;;;;;;;753922;184;639313;-59
2022/07/17 06:52:46;;;;;;;8.50;1.63;;;;;;;;;;757836;184;625988;-59
2022/07/17 06:55:12;;;;;;;3.30;1.40;;;;;;;;;;749028;185;618659;-59
2022/07/17 06:57:38;;;;;;;4.70;1.63;;;;;;;;;;755579;186;617011;-62
2022/07/17 07:00:04;;;;;;;4.50;1.70;;;;;;;;;;756716;185;640316;-61
2022/07/17 07:02:30;;;;;;;3.50;1.57;;;;;;;;;;754887;185;638398;-62
2022/07/17 07:04:55;;;;;;;11.33;1.77;;;;;;;;;;757694;186;631983;-59
2022/07/17 07:07:21;;;;;;;3.37;1.43;;;;;;;;;;753585;185;632964;-59
2022/07/17 07:09:47;;;;;;;3.03;1.50;;;;;;;;;;754257;185;628893;-59
2022/07/17 07:12:13;;;;;;;5.87;1.43;;;;;;;;;;759545;184;617342;-63
2022/07/17 07:14:39;;;;;;;4.57;1.53;;;;;;;;;;754837;185;628243;-59
2022/07/17 07:17:05;;;;;;;3.90;1.50;;;;;;;;;;754896;184;623750;-59
2022/07/17 07:19:30;;;;;;;4.53;1.30;;;;;;;;;;755469;184;633595;-59
2022/07/17 07:21:57;;;;;;;3.07;1.20;;;;;;;;;;758978;185;635081;-59
2022/07/17 07:24:22;;;;;;;4.53;1.30;;;;;;;;;;753077;185;639523;-61
2022/07/17 07:26:48;;;;;;;3.27;1.23;;;;;;;;;;753156;185;624033;-59
2022/07/17 07:29:14;;;;;;;3.80;1.83;;;;;;;;;;753704;185;617276;-63
2022/07/17 07:31:40;;;;;;;6.67;1.80;;;;;;;;;;753626;185;625060;-59
2022/07/17 07:34:06;;;;;;;2.80;1.63;;;;;;;;;;753295;185;621481;-60
2022/07/17 07:36:31;;;;;;;4.97;2.00;;;;;;;;;;756051;185;639890;-60
2022/07/17 07:38:57;;;;;;;6.33;1.70;;;;;;;;;;758081;185;634378;-65
2022/07/17 07:41:23;;;;;;;4.37;2.43;;;;;;;;;;754554;181;612301;-59
2022/07/17 07:43:49;;;;;;;3.67;1.63;;;;;;;;;;747502;187;628496;-64
2022/07/17 07:46:15;;;;;;;4.73;1.60;;;;;;;;;;754955;185;632623;-60
2022/07/17 07:48:41;;;;;;;4.27;1.30;;;;;;;;;;753475;185;632479;-63
2022/07/17 07:51:06;;;;;;;2.73;1.57;;;;;;;;;;754984;185;625192;-62
2022/07/17 07:53:32;;;;;;;5.20;1.57;;;;;;;;;;757743;185;631651;-60
2022/07/17 07:55:58;;;;;;;10.00;1.50;;;;;;;;;;753749;184;619055;-60
2022/07/17 07:58:24;;;;;;;5.50;1.33;;;;;;;;;;755000;185;632656;-63
2022/07/17 08:00:50;;;;;;;6.97;1.80;;;;;;;;;;758134;185;618968;-63
2022/07/17 08:03:17;;;;;;;3.60;1.47;;;;;;;;;;754611;185;629210;-59
2022/07/17 08:05:42;;;;;;;4.93;1.70;;;;;;;;;;752870;185;625370;-65
2022/07/17 08:08:08;;;;;;;3.75;1.67;;;;;;;;;;755514;185;630055;-65
2022/07/17 08:10:34;;;;;;;5.40;1.90;;;;;;;;;;754873;185;911189;-60
2022/07/17 08:13:00;;;;;;;4.03;1.30;;;;;;;;;;752484;183;616840;-60
2022/07/17 08:15:25;;;;;;;2.77;1.40;;;;;;;;;;754833;185;632831;-64
2022/07/17 08:17:51;;;;;;;4.50;1.43;;;;;;;;;;757613;185;619048;-60
2022/07/17 08:20:17;;;;;;;3.80;1.47;;;;;;;;;;755279;184;628029;-60
2022/07/17 08:22:43;;;;;;;2.93;1.40;;;;;;;;;;753704;185;631573;-60
2022/07/17 08:25:09;;;;;;;3.80;1.60;;;;;;;;;;757562;185;614831;-61
2022/07/17 08:27:35;;;;;;;10.70;2.20;;;;;;;;;;753362;186;618122;-65
2022/07/17 08:30:01;;;;;;;4.30;1.63;;;;;;;;;;752704;185;629067;-60
2022/07/17 08:32:26;;;;;;;3.67;1.70;;;;;;;;;;760707;185;623696;-61
2022/07/17 08:34:52;;;;;;;3.17;1.47;;;;;;;;;;748398;186;632060;-65
2022/07/17 08:37:18;;;;;;;3.13;1.40;;;;;;;;;;752665;185;629016;-64
2022/07/17 08:39:44;;;;;;;2.67;1.40;;;;;;;;;;754838;182;622368;-61
2022/07/17 08:42:15;;;;;;;3.13;1.60;;;;;;;;;;756789;185;618274;-65
2022/07/17 08:44:36;;;;;;;3.93;2.13;;;;;;;;;;753833;183;621060;-60
2022/07/17 08:47:02;;;;;;;5.90;1.73;;;;;;;;;;752703;185;635521;-61
2022/07/17 08:49:28;;;;;;;10.80;1.80;;;;;;;;;;756063;186;627781;-65
2022/07/17 08:51:55;;;;;;;8.43;2.50;;;;;;;;;;753572;185;618503;-66
2022/07/17 08:54:22;;;;;;;3.30;1.20;;;;;;;;;;751790;183;631061;-65
2022/07/17 08:56:45;;;;;;;7.57;1.50;;;;;;;;;;756157;185;620351;-60
2022/07/17 08:59:11;;;;;;;3.50;1.50;;;;;;;;;;753780;185;645614;-59
2022/07/17 09:01:37;;;;;;;3.90;1.30;;;;;;;;;;754877;182;618160;-59
2022/07/17 09:04:06;;;;;;;4.93;1.50;;;;;;;;;;757016;185;635317;-64
2022/07/17 09:06:31;;;;;;;3.57;1.40;;;;;;;;;;759883;185;623462;-61
2022/07/17 09:09:03;;;;;;;4.90;2.00;;;;;;;;;;753955;185;634860;-61
2022/07/17 09:11:29;;;;;;;3.70;1.47;;;;;;;;;;754093;185;627165;-59
2022/07/17 09:13:55;;;;;;;7.27;1.90;;;;;;;;;;757440;184;631551;-63
2022/07/17 09:16:21;;;;;;;6.30;2.30;;;;;;;;;;756013;186;623795;-59
2022/07/17 09:18:46;;;;;;;5.07;1.80;;;;;;;;;;740896;187;623835;-58
2022/07/17 09:21:16;;;;;;;4.47;1.60;;;;;;;;;;755016;186;628630;-63
2022/07/17 09:23:42;;;;;;;4.13;1.93;;;;;;;;;;757113;185;629853;-59
2022/07/17 09:26:08;;;;;;;2.77;1.70;;;;;;;;;;747612;187;919804;-60
2022/07/17 09:28:33;;;;;;;4.30;1.70;;;;;;;;;;749952;186;919573;-62
2022/07/17 09:30:59;;;;;;;3.67;1.40;;;;;;;;;;756352;185;626788;-62
2022/07/17 09:33:26;;;;;;;6.57;1.77;;;;;;;;;;754482;183;615110;-59
2022/07/17 09:35:52;;;;;;;4.83;1.70;;;;;;;;;;752629;185;617256;-62
2022/07/17 09:38:23;;;;;;;4.90;1.53;;;;;;;;;;752813;183;618838;-62
2022/07/17 09:43:21;;;;;;;4.53;1.70;;;;;;;;;;753043;185;628569;-59
2022/07/17 09:45:48;;;;;;;7.30;1.67;;;;;;;;;;749779;185;919802;-62
2022/07/17 09:48:14;;;;;;;3.50;1.33;;;;;;;;;;747383;186;918757;-58
2022/07/17 09:50:40;;;;;;;8.20;1.70;;;;;;;;;;752361;185;919230;-59
2022/07/17 09:53:06;;;;;;;4.60;1.43;;;;;;;;;;749119;185;920239;-59
2022/07/17 09:55:32;;;;;;;7.37;1.50;;;;;;;;;;748029;185;922645;-59
2022/07/17 09:57:57;;;;;;;7.17;1.50;;;;;;;;;;752861;185;1015020;-59
2022/07/17 10:00:23;;;;;;;4.13;1.30;;;;;;;;;;750799;185;918508;-58
2022/07/17 10:02:49;;;;;;;6.30;3.90;;;;;;;;;;748418;184;918354;-61
2022/07/17 10:05:15;;;;;;;3.90;1.23;;;;;;;;;;753207;185;901047;-60
2022/07/17 10:07:45;;;;;;;5.50;1.43;;;;;;;;;;749013;185;919221;-60
2022/07/17 10:10:10;;;;;;;4.80;1.93;;;;;;;;;;749543;184;882912;-59
2022/07/17 10:12:36;;;;;;;3.90;1.63;;;;;;;;;;748481;183;919415;-59
2022/07/17 10:15:02;;;;;;;3.57;1.40;;;;;;;;;;758050;181;628014;-57
2022/07/17 10:17:28;;;;;;;4.00;1.60;;;;;;;;;;748793;185;917436;-62
2022/07/17 10:19:54;;;;;;;4.70;1.33;;;;;;;;;;748879;185;819937;-59
2022/07/17 10:22:20;;;;;;;3.10;1.43;;;;;;;;;;754806;182;912607;-61
2022/07/17 10:24:46;;;;;;;4.00;2.07;;;;;;;;;;743274;184;1021326;-62
2022/07/17 10:27:17;;;;;;;3.45;1.60;;;;;;;;;;748428;182;849970;-63
2022/07/17 10:29:43;;;;;;;3.50;1.23;;;;;;;;;;748759;185;912303;-59
2022/07/17 10:32:09;;;;;;;8.10;1.50;;;;;;;;;;753441;185;850004;-62
2022/07/17 10:34:43;;;;;;;3.60;1.40;;;;;;;;;;751250;185;714766;-62
2022/07/17 10:37:15;;;;;;;4.40;1.40;;;;;;;;;;750197;186;1017509;-57
2022/07/17 10:39:41;;;;;;;4.28;1.50;;;;;;;;;;751004;183;919158;-61
2022/07/17 10:42:07;;;;;;;4.00;1.50;;;;;;;;;;752744;185;919120;-65
2022/07/17 10:44:32;;;;;;;4.60;1.37;;;;;;;;;;749403;185;918207;-62
2022/07/17 10:46:58;;;;;;;3.80;1.37;;;;;;;;;;751300;184;1022111;-62
2022/07/17 10:49:24;;;;;;;3.37;1.33;;;;;;;;;;751595;185;1168529;-61
2022/07/17 10:51:51;;;;;;;3.77;1.83;;;;;;;;;;753429;185;623598;-62
2022/07/17 10:54:17;;;;;;;4.07;1.37;;;;;;;;;;752075;184;624941;-62
2022/07/17 10:56:44;;;;;;;2.90;1.37;;;;;;;;;;752688;185;621306;-62
2022/07/17 10:59:10;;;;;;;3.00;1.30;;;;;;;;;;757916;185;619502;-64
2022/07/17 11:01:36;;;;;;;2.80;1.40;;;;;;;;;;749130;186;907836;-65
2022/07/17 11:04:02;;;;;;;3.37;1.40;;;;;;;;;;747533;186;922786;-60
2022/07/17 11:06:30;;;;;;;3.60;1.40;;;;;;;;;;752905;185;833242;-60
2022/07/17 11:08:56;;;;;;;4.00;1.60;;;;;;;;;;750228;185;921389;-62
2022/07/17 11:11:22;;;;;;;3.75;1.15;;;;;;;;;;751144;182;910652;-61
2022/07/17 11:13:47;;;;;;;4.17;1.60;;;;;;;;;;756606;185;919406;-61
2022/07/17 11:16:13;;;;;;;2.63;1.40;;;;;;;;;;742957;185;917327;-61
2022/07/17 11:18:39;;;;;;;2.70;1.37;;;;;;;;;;750464;185;859169;-59
2022/07/17 11:21:05;;;;;;;6.10;1.30;;;;;;;;;;748902;183;916189;-61
2022/07/17 11:23:31;;;;;;;5.40;1.60;;;;;;;;;;755156;184;920801;-60
2022/07/17 11:25:59;;;;;;;3.10;1.33;;;;;;;;;;750018;184;919816;-60
2022/07/17 11:28:27;;;;;;;3.37;1.63;;;;;;;;;;749900;185;918319;-60
2022/07/17 11:30:53;;;;;;;6.33;1.47;;;;;;;;;;752674;185;922088;-61
2022/07/17 11:33:19;;;;;;;3.20;1.53;;;;;;;;;;752525;185;915692;-60
2022/07/17 11:35:46;;;;;;;5.03;1.70;;;;;;;;;;744397;185;815613;-61
2022/07/17 11:38:11;;;;;;;3.60;1.20;;;;;;;;;;750088;184;899004;-59
2022/07/17 11:40:37;;;;;;;6.60;1.50;;;;;;;;;;757288;184;816956;-62
2022/07/17 11:43:05;;;;;;;5.90;1.47;;;;;;;;;;748991;185;919399;-60
2022/07/17 11:45:29;;;;;;;4.40;1.50;;;;;;;;;;746861;184;931880;-61
2022/07/17 11:47:55;;;;;;;5.23;1.50;;;;;;;;;;753206;185;918894;-60
2022/07/17 11:50:21;;;;;;;5.27;1.17;;;;;;;;;;749991;185;919702;-60
2022/07/17 11:52:48;;;;;;;8.07;1.50;;;;;;;;;;747266;186;922428;-60
2022/07/17 11:55:12;;;;;;;3.27;1.33;;;;;;;;;;754900;185;919948;-61
2022/07/17 11:57:41;;;;;;;4.23;2.80;;;;;;;;;;747798;185;917245;-60
2022/07/17 12:00:08;;;;;;;2.60;1.40;;;;;;;;;;750742;185;919444;-60
2022/07/17 12:02:34;;;;;;;10.80;1.67;;;;;;;;;;748767;185;919910;-60
2022/07/17 12:04:59;;;;;;;4.17;1.40;;;;;;;;;;756173;184;921087;-62
2022/07/17 12:07:25;;;;;;;6.67;1.50;;;;;;;;;;752555;184;913078;-60
2022/07/17 12:09:51;;;;;;;4.43;1.27;;;;;;;;;;750961;187;619308;-60
2022/07/17 12:12:20;;;;;;;2.60;1.20;;;;;;;;;;755885;183;905895;-60
2022/07/17 12:14:47;;;;;;;8.07;1.30;;;;;;;;;;756164;184;628447;-61
2022/07/17 12:17:12;;;;;;;4.83;1.70;;;;;;;;;;747690;184;921006;-61
2022/07/17 12:19:38;;;;;;;4.25;1.60;;;;;;;;;;754287;185;867251;-63
2022/07/17 12:22:04;;;;;;;4.37;1.47;;;;;;;;;;742319;186;839134;-60
2022/07/17 12:24:31;;;;;;;5.53;1.50;;;;;;;;;;743928;185;918160;-61
2022/07/17 12:26:57;;;;;;;3.57;1.20;;;;;;;;;;753157;185;620851;-61
2022/07/17 12:29:22;;;;;;;4.60;1.23;;;;;;;;;;762050;185;617080;-62
2022/07/17 12:31:48;;;;;;;4.13;2.00;;;;;;;;;;746315;183;643033;-61
2022/07/17 12:34:14;;;;;;;7.47;1.50;;;;;;;;;;754176;183;618023;-61
2022/07/17 12:36:40;;;;;;;3.17;1.30;;;;;;;;;;764491;184;617300;-61
2022/07/17 12:39:06;;;;;;;4.30;1.40;;;;;;;;;;753088;185;819046;-61
2022/07/17 12:41:32;;;;;;;2.50;1.30;;;;;;;;;;752578;185;918903;-61
2022/07/17 12:43:58;;;;;;;4.60;1.50;;;;;;;;;;760106;183;919276;-61
2022/07/17 12:46:24;;;;;;;3.03;1.43;;;;;;;;;;756300;186;925238;-61
2022/07/17 12:48:50;;;;;;;2.83;1.13;;;;;;;;;;753033;185;919095;-60
2022/07/17 12:51:16;;;;;;;5.17;1.40;;;;;;;;;;751637;185;921843;-60
2022/07/17 12:53:42;;;;;;;4.13;1.73;;;;;;;;;;755355;185;916361;-61
2022/07/17 12:56:07;;;;;;;5.47;1.70;;;;;;;;;;751311;185;921621;-60
2022/07/17 12:58:33;;;;;;;3.17;1.57;;;;;;;;;;751042;186;819496;-60
2022/07/17 13:00:59;;;;;;;2.30;1.20;;;;;;;;;;757964;185;920500;-61
2022/07/17 13:03:25;;;;;;;4.70;1.53;;;;;;;;;;744566;185;917454;-61
2022/07/17 13:05:51;;;;;;;5.83;1.90;;;;;;;;;;745922;186;916420;-61
2022/07/17 13:08:17;;;;;;;3.17;1.40;;;;;;;;;;755453;184;737104;-60
2022/07/17 13:10:43;;;;;;;3.80;1.30;;;;;;;;;;754211;185;918889;-60
2022/07/17 13:13:08;;;;;;;6.20;1.60;;;;;;;;;;752323;185;921207;-60
2022/07/17 13:15:34;;;;;;;4.83;1.60;;;;;;;;;;739727;186;916112;-60
2022/07/17 13:18:00;;;;;;;6.25;1.45;;;;;;;;;;754953;185;915995;-60
2022/07/17 13:20:26;;;;;;;3.17;1.47;;;;;;;;;;749518;183;915295;-60
2022/07/17 13:22:52;;;;;;;6.00;1.33;;;;;;;;;;751577;186;920045;-60
2022/07/17 13:25:18;;;;;;;2.97;1.40;;;;;;;;;;755204;184;912271;-59
2022/07/17 13:27:44;;;;;;;3.50;1.47;;;;;;;;;;750503;185;920282;-60
2022/07/17 13:30:10;;;;;;;3.40;1.40;;;;;;;;;;747388;183;919418;-60
2022/07/17 13:32:36;;;;;;;3.40;1.43;;;;;;;;;;755741;185;816592;-61
2022/07/17 13:35:02;;;;;;;4.37;1.30;;;;;;;;;;755111;183;917356;-60
2022/07/17 13:37:27;;;;;;;8.37;1.73;;;;;;;;;;742247;185;819103;-60
2022/07/17 13:39:53;;;;;;;4.73;1.40;;;;;;;;;;748693;186;920271;-61
2022/07/17 13:42:19;;;;;;;4.10;1.40;;;;;;;;;;758720;181;913853;-61
2022/07/17 13:44:45;;;;;;;4.37;1.70;;;;;;;;;;747847;185;922230;-61
2022/07/17 13:47:11;;;;;;;5.80;1.63;;;;;;;;;;751823;184;919654;-60
2022/07/17 13:49:37;;;;;;;4.50;1.47;;;;;;;;;;757725;182;919670;-60
2022/07/17 13:52:03;;;;;;;4.30;1.70;;;;;;;;;;750280;185;919311;-60
2022/07/17 13:54:29;;;;;;;4.93;1.77;;;;;;;;;;754017;185;919393;-61
2022/07/17 13:56:54;;;;;;;9.83;2.23;;;;;;;;;;759461;185;912240;-62
2022/07/17 13:59:20;;;;;;;4.43;1.43;;;;;;;;;;754338;185;920124;-60
2022/07/17 14:01:46;;;;;;;3.28;1.40;;;;;;;;;;750437;185;901245;-61
2022/07/17 14:04:12;;;;;;;2.60;1.30;;;;;;;;;;755087;185;919445;-60
2022/07/17 14:06:38;;;;;;;7.67;1.60;;;;;;;;;;746014;186;919321;-61
2022/07/17 14:09:04;;;;;;;2.90;1.57;;;;;;;;;;742845;186;918254;-61
2022/07/17 14:11:30;;;;;;;4.27;1.40;;;;;;;;;;751039;185;913278;-60
2022/07/17 14:13:56;;;;;;;3.10;1.60;;;;;;;;;;754147;185;921558;-60
2022/07/17 14:16:22;;;;;;;12.43;1.90;;;;;;;;;;749531;185;920705;-60
2022/07/17 14:21:19;;;;;;;4.10;1.40;;;;;;;;;;756287;185;817916;-60
2022/07/17 14:23:45;;;;;;;4.77;1.47;;;;;;;;;;747309;185;976771;-61
2022/07/17 14:26:11;;;;;;;5.17;1.40;;;;;;;;;;747941;184;919497;-60
2022/07/17 14:28:36;;;;;;;5.10;1.90;;;;;;;;;;749530;185;923610;-60